sensor_id;sensor_type;location;lat;lon;timestamp;P1;durP1;ratioP1;P2;durP2;ratioP2
73132;SDS011;61320;52.008;4.530;2023-03-16T00:00:34;9.25;;;9.25;;
73132;SDS011;61320;52.008;4.530;2023-03-16T00:03:03;9.43;;;9.43;;
73132;SDS011;61320;52.008;4.530;2023-03-16T00:05:28;9.21;;;9.21;;
73132;SDS011;61320;52.008;4.530;2023-03-16T00:07:54;9.90;;;9.90;;
73132;SDS011;61320;52.008;4.530;2023-03-16T00:10:19;9.89;;;9.89;;
73132;SDS011;61320;52.008;4.530;2023-03-16T00:12:51;10.00;;;10.00;;
73132;SDS011;61320;52.008;4.530;2023-03-16T00:15:20;9.66;;;9.66;;
73132;SDS011;61320;52.008;4.530;2023-03-16T00:17:46;9.62;;;9.62;;
73132;SDS011;61320;52.008;4.530;2023-03-16T00:20:13;10.00;;;10.00;;
73132;SDS011;61320;52.008;4.530;2023-03-16T00:22:40;10.31;;;10.29;;
73132;SDS011;61320;52.008;4.530;2023-03-16T00:25:09;9.87;;;9.87;;
73132;SDS011;61320;52.008;4.530;2023-03-16T00:27:36;9.95;;;9.95;;
73132;SDS011;61320;52.008;4.530;2023-03-16T00:30:02;9.86;;;9.86;;
73132;SDS011;61320;52.008;4.530;2023-03-16T00:32:30;9.57;;;9.57;;
73132;SDS011;61320;52.008;4.530;2023-03-16T00:34:59;9.45;;;9.45;;
73132;SDS011;61320;52.008;4.530;2023-03-16T00:37:27;9.81;;;9.81;;
73132;SDS011;61320;52.008;4.530;2023-03-16T00:39:53;9.64;;;9.64;;
73132;SDS011;61320;52.008;4.530;2023-03-16T00:42:20;9.79;;;9.79;;
73132;SDS011;61320;52.008;4.530;2023-03-16T00:44:51;10.23;;;10.23;;
73132;SDS011;61320;52.008;4.530;2023-03-16T00:47:22;10.01;;;10.01;;
73132;SDS011;61320;52.008;4.530;2023-03-16T00:49:49;10.17;;;10.17;;
73132;SDS011;61320;52.008;4.530;2023-03-16T00:52:15;10.26;;;10.26;;
73132;SDS011;61320;52.008;4.530;2023-03-16T00:54:41;9.81;;;9.81;;
73132;SDS011;61320;52.008;4.530;2023-03-16T00:57:12;10.05;;;10.05;;
73132;SDS011;61320;52.008;4.530;2023-03-16T00:59:40;10.42;;;10.42;;
73132;SDS011;61320;52.008;4.530;2023-03-16T01:02:07;9.78;;;9.78;;
73132;SDS011;61320;52.008;4.530;2023-03-16T01:04:33;10.37;;;10.37;;
73132;SDS011;61320;52.008;4.530;2023-03-16T01:07:00;10.46;;;10.46;;
73132;SDS011;61320;52.008;4.530;2023-03-16T01:09:29;10.52;;;10.52;;
73132;SDS011;61320;52.008;4.530;2023-03-16T01:11:55;10.32;;;10.32;;
73132;SDS011;61320;52.008;4.530;2023-03-16T01:14:20;10.66;;;10.66;;
73132;SDS011;61320;52.008;4.530;2023-03-16T01:16:46;10.38;;;10.38;;
73132;SDS011;61320;52.008;4.530;2023-03-16T01:19:12;10.52;;;10.52;;
73132;SDS011;61320;52.008;4.530;2023-03-16T01:21:39;10.17;;;10.17;;
73132;SDS011;61320;52.008;4.530;2023-03-16T01:24:06;10.42;;;10.42;;
73132;SDS011;61320;52.008;4.530;2023-03-16T01:26:33;10.55;;;10.55;;
73132;SDS011;61320;52.008;4.530;2023-03-16T01:29:00;11.10;;;11.10;;
73132;SDS011;61320;52.008;4.530;2023-03-16T01:31:26;10.40;;;10.40;;
73132;SDS011;61320;52.008;4.530;2023-03-16T01:33:53;10.20;;;10.20;;
73132;SDS011;61320;52.008;4.530;2023-03-16T01:36:20;10.75;;;10.75;;
73132;SDS011;61320;52.008;4.530;2023-03-16T01:38:47;10.42;;;10.42;;
73132;SDS011;61320;52.008;4.530;2023-03-16T01:41:13;10.29;;;10.29;;
73132;SDS011;61320;52.008;4.530;2023-03-16T01:43:39;10.20;;;10.20;;
73132;SDS011;61320;52.008;4.530;2023-03-16T01:48:32;10.57;;;10.57;;
73132;SDS011;61320;52.008;4.530;2023-03-16T01:51:09;9.97;;;9.97;;
73132;SDS011;61320;52.008;4.530;2023-03-16T01:53:40;10.15;;;10.15;;
73132;SDS011;61320;52.008;4.530;2023-03-16T01:56:11;10.70;;;10.70;;
73132;SDS011;61320;52.008;4.530;2023-03-16T01:58:42;10.33;;;10.33;;
73132;SDS011;61320;52.008;4.530;2023-03-16T02:01:10;10.41;;;10.41;;
73132;SDS011;61320;52.008;4.530;2023-03-16T02:03:37;9.52;;;9.52;;
73132;SDS011;61320;52.008;4.530;2023-03-16T02:06:08;10.56;;;10.56;;
73132;SDS011;61320;52.008;4.530;2023-03-16T02:08:39;10.22;;;10.22;;
73132;SDS011;61320;52.008;4.530;2023-03-16T02:11:09;10.01;;;10.01;;
73132;SDS011;61320;52.008;4.530;2023-03-16T02:13:36;10.34;;;10.34;;
73132;SDS011;61320;52.008;4.530;2023-03-16T02:16:03;10.77;;;10.77;;
73132;SDS011;61320;52.008;4.530;2023-03-16T02:18:31;10.31;;;10.31;;
73132;SDS011;61320;52.008;4.530;2023-03-16T02:23:29;10.09;;;10.09;;
73132;SDS011;61320;52.008;4.530;2023-03-16T02:31:19;10.52;;;10.52;;
73132;SDS011;61320;52.008;4.530;2023-03-16T02:33:46;9.89;;;9.89;;
73132;SDS011;61320;52.008;4.530;2023-03-16T02:36:16;10.19;;;10.19;;
73132;SDS011;61320;52.008;4.530;2023-03-16T02:38:43;10.13;;;10.13;;
73132;SDS011;61320;52.008;4.530;2023-03-16T02:41:16;10.00;;;10.00;;
73132;SDS011;61320;52.008;4.530;2023-03-16T02:43:52;9.86;;;9.86;;
73132;SDS011;61320;52.008;4.530;2023-03-16T02:46:24;9.76;;;9.76;;
73132;SDS011;61320;52.008;4.530;2023-03-16T02:49:00;9.76;;;9.76;;
73132;SDS011;61320;52.008;4.530;2023-03-16T02:51:30;10.29;;;10.29;;
73132;SDS011;61320;52.008;4.530;2023-03-16T02:53:56;9.92;;;9.92;;
73132;SDS011;61320;52.008;4.530;2023-03-16T02:56:22;10.11;;;10.11;;
73132;SDS011;61320;52.008;4.530;2023-03-16T02:58:47;9.85;;;9.85;;
73132;SDS011;61320;52.008;4.530;2023-03-16T03:01:13;9.79;;;9.79;;
73132;SDS011;61320;52.008;4.530;2023-03-16T03:03:38;9.95;;;9.95;;
73132;SDS011;61320;52.008;4.530;2023-03-16T03:06:04;10.64;;;10.64;;
73132;SDS011;61320;52.008;4.530;2023-03-16T03:08:32;10.27;;;10.27;;
73132;SDS011;61320;52.008;4.530;2023-03-16T03:10:58;10.35;;;10.35;;
73132;SDS011;61320;52.008;4.530;2023-03-16T03:13:23;9.91;;;9.91;;
73132;SDS011;61320;52.008;4.530;2023-03-16T03:15:49;9.82;;;9.82;;
73132;SDS011;61320;52.008;4.530;2023-03-16T03:18:14;9.73;;;9.73;;
73132;SDS011;61320;52.008;4.530;2023-03-16T03:20:40;9.64;;;9.64;;
73132;SDS011;61320;52.008;4.530;2023-03-16T03:23:05;10.31;;;10.31;;
73132;SDS011;61320;52.008;4.530;2023-03-16T03:25:31;9.61;;;9.61;;
73132;SDS011;61320;52.008;4.530;2023-03-16T03:28:00;9.90;;;9.90;;
73132;SDS011;61320;52.008;4.530;2023-03-16T03:30:29;9.79;;;9.79;;
73132;SDS011;61320;52.008;4.530;2023-03-16T03:32:56;9.49;;;9.49;;
73132;SDS011;61320;52.008;4.530;2023-03-16T03:35:22;9.64;;;9.64;;
73132;SDS011;61320;52.008;4.530;2023-03-16T03:37:47;9.50;;;9.50;;
73132;SDS011;61320;52.008;4.530;2023-03-16T03:40:14;9.73;;;9.73;;
73132;SDS011;61320;52.008;4.530;2023-03-16T03:42:42;9.21;;;9.21;;
73132;SDS011;61320;52.008;4.530;2023-03-16T03:45:08;9.74;;;9.74;;
73132;SDS011;61320;52.008;4.530;2023-03-16T03:47:37;9.38;;;9.38;;
73132;SDS011;61320;52.008;4.530;2023-03-16T03:50:04;9.62;;;9.62;;
73132;SDS011;61320;52.008;4.530;2023-03-16T03:52:31;9.82;;;9.82;;
73132;SDS011;61320;52.008;4.530;2023-03-16T03:54:56;9.56;;;9.56;;
73132;SDS011;61320;52.008;4.530;2023-03-16T03:57:21;9.47;;;9.47;;
73132;SDS011;61320;52.008;4.530;2023-03-16T03:59:47;9.61;;;9.61;;
73132;SDS011;61320;52.008;4.530;2023-03-16T04:02:12;9.36;;;9.36;;
73132;SDS011;61320;52.008;4.530;2023-03-16T04:04:39;9.47;;;9.47;;
73132;SDS011;61320;52.008;4.530;2023-03-16T04:07:05;9.66;;;9.66;;
73132;SDS011;61320;52.008;4.530;2023-03-16T04:09:31;9.64;;;9.64;;
73132;SDS011;61320;52.008;4.530;2023-03-16T04:12:00;9.41;;;9.41;;
73132;SDS011;61320;52.008;4.530;2023-03-16T04:14:28;9.04;;;9.04;;
73132;SDS011;61320;52.008;4.530;2023-03-16T04:16:54;9.09;;;9.09;;
73132;SDS011;61320;52.008;4.530;2023-03-16T04:19:23;9.24;;;9.24;;
73132;SDS011;61320;52.008;4.530;2023-03-16T04:21:50;8.75;;;8.75;;
73132;SDS011;61320;52.008;4.530;2023-03-16T04:24:16;9.05;;;9.05;;
73132;SDS011;61320;52.008;4.530;2023-03-16T04:26:43;8.88;;;8.88;;
73132;SDS011;61320;52.008;4.530;2023-03-16T04:29:14;8.64;;;8.64;;
73132;SDS011;61320;52.008;4.530;2023-03-16T04:31:42;8.66;;;8.66;;
73132;SDS011;61320;52.008;4.530;2023-03-16T04:34:08;8.97;;;8.97;;
73132;SDS011;61320;52.008;4.530;2023-03-16T04:36:35;8.47;;;8.47;;
73132;SDS011;61320;52.008;4.530;2023-03-16T04:39:02;8.40;;;8.40;;
73132;SDS011;61320;52.008;4.530;2023-03-16T04:41:28;8.15;;;8.15;;
73132;SDS011;61320;52.008;4.530;2023-03-16T04:43:54;8.17;;;8.17;;
73132;SDS011;61320;52.008;4.530;2023-03-16T04:46:21;7.93;;;7.93;;
73132;SDS011;61320;52.008;4.530;2023-03-16T04:48:47;7.39;;;7.39;;
73132;SDS011;61320;52.008;4.530;2023-03-16T04:51:13;7.65;;;7.65;;
73132;SDS011;61320;52.008;4.530;2023-03-16T04:53:39;7.44;;;7.44;;
73132;SDS011;61320;52.008;4.530;2023-03-16T04:56:04;7.04;;;7.04;;
73132;SDS011;61320;52.008;4.530;2023-03-16T04:58:31;7.35;;;7.35;;
73132;SDS011;61320;52.008;4.530;2023-03-16T05:00:57;7.15;;;7.15;;
73132;SDS011;61320;52.008;4.530;2023-03-16T05:03:23;6.96;;;6.96;;
73132;SDS011;61320;52.008;4.530;2023-03-16T05:05:49;7.34;;;7.34;;
73132;SDS011;61320;52.008;4.530;2023-03-16T05:08:15;6.69;;;6.69;;
73132;SDS011;61320;52.008;4.530;2023-03-16T05:10:41;6.80;;;6.80;;
73132;SDS011;61320;52.008;4.530;2023-03-16T05:13:08;6.62;;;6.62;;
73132;SDS011;61320;52.008;4.530;2023-03-16T05:15:34;6.76;;;6.76;;
73132;SDS011;61320;52.008;4.530;2023-03-16T05:17:59;6.74;;;6.74;;
73132;SDS011;61320;52.008;4.530;2023-03-16T05:20:25;6.49;;;6.49;;
73132;SDS011;61320;52.008;4.530;2023-03-16T05:22:51;6.58;;;6.58;;
73132;SDS011;61320;52.008;4.530;2023-03-16T05:25:17;6.04;;;6.04;;
73132;SDS011;61320;52.008;4.530;2023-03-16T05:27:45;5.81;;;5.81;;
73132;SDS011;61320;52.008;4.530;2023-03-16T05:30:15;5.86;;;5.86;;
73132;SDS011;61320;52.008;4.530;2023-03-16T05:32:42;5.86;;;5.86;;
73132;SDS011;61320;52.008;4.530;2023-03-16T05:35:09;5.48;;;5.48;;
73132;SDS011;61320;52.008;4.530;2023-03-16T05:37:37;5.37;;;5.37;;
73132;SDS011;61320;52.008;4.530;2023-03-16T05:40:05;5.14;;;5.14;;
73132;SDS011;61320;52.008;4.530;2023-03-16T05:42:42;5.30;;;5.30;;
73132;SDS011;61320;52.008;4.530;2023-03-16T05:45:09;5.00;;;5.00;;
73132;SDS011;61320;52.008;4.530;2023-03-16T05:47:35;5.15;;;5.15;;
73132;SDS011;61320;52.008;4.530;2023-03-16T05:50:02;5.21;;;5.21;;
73132;SDS011;61320;52.008;4.530;2023-03-16T05:52:29;5.11;;;5.11;;
73132;SDS011;61320;52.008;4.530;2023-03-16T05:54:54;5.12;;;5.12;;
73132;SDS011;61320;52.008;4.530;2023-03-16T05:57:20;5.18;;;5.18;;
73132;SDS011;61320;52.008;4.530;2023-03-16T05:59:45;5.31;;;5.31;;
73132;SDS011;61320;52.008;4.530;2023-03-16T06:02:12;5.17;;;5.17;;
73132;SDS011;61320;52.008;4.530;2023-03-16T06:04:38;7.20;;;7.20;;
73132;SDS011;61320;52.008;4.530;2023-03-16T06:07:03;9.09;;;9.09;;
73132;SDS011;61320;52.008;4.530;2023-03-16T06:09:29;5.42;;;5.42;;
73132;SDS011;61320;52.008;4.530;2023-03-16T06:11:54;5.62;;;5.62;;
73132;SDS011;61320;52.008;4.530;2023-03-16T06:14:20;5.81;;;5.81;;
73132;SDS011;61320;52.008;4.530;2023-03-16T06:16:47;5.59;;;5.59;;
73132;SDS011;61320;52.008;4.530;2023-03-16T06:19:12;5.54;;;5.54;;
73132;SDS011;61320;52.008;4.530;2023-03-16T06:21:38;6.03;;;6.03;;
73132;SDS011;61320;52.008;4.530;2023-03-16T06:24:03;5.87;;;5.85;;
73132;SDS011;61320;52.008;4.530;2023-03-16T06:26:29;5.78;;;5.78;;
73132;SDS011;61320;52.008;4.530;2023-03-16T06:28:55;5.46;;;5.46;;
73132;SDS011;61320;52.008;4.530;2023-03-16T06:31:20;5.82;;;5.82;;
73132;SDS011;61320;52.008;4.530;2023-03-16T06:33:46;5.68;;;5.68;;
73132;SDS011;61320;52.008;4.530;2023-03-16T06:36:11;5.74;;;5.74;;
73132;SDS011;61320;52.008;4.530;2023-03-16T06:38:37;5.87;;;5.87;;
73132;SDS011;61320;52.008;4.530;2023-03-16T06:41:02;5.73;;;5.73;;
73132;SDS011;61320;52.008;4.530;2023-03-16T06:43:28;5.97;;;5.97;;
73132;SDS011;61320;52.008;4.530;2023-03-16T06:45:53;5.86;;;5.86;;
73132;SDS011;61320;52.008;4.530;2023-03-16T06:48:19;5.61;;;5.61;;
73132;SDS011;61320;52.008;4.530;2023-03-16T06:50:45;5.77;;;5.77;;
73132;SDS011;61320;52.008;4.530;2023-03-16T06:53:10;5.65;;;5.65;;
73132;SDS011;61320;52.008;4.530;2023-03-16T06:55:36;5.42;;;5.42;;
73132;SDS011;61320;52.008;4.530;2023-03-16T06:58:01;5.45;;;5.45;;
73132;SDS011;61320;52.008;4.530;2023-03-16T07:00:27;5.47;;;5.47;;
73132;SDS011;61320;52.008;4.530;2023-03-16T07:02:52;5.43;;;5.43;;
73132;SDS011;61320;52.008;4.530;2023-03-16T07:05:18;5.61;;;5.61;;
73132;SDS011;61320;52.008;4.530;2023-03-16T07:07:43;5.65;;;5.65;;
73132;SDS011;61320;52.008;4.530;2023-03-16T07:10:10;5.45;;;5.45;;
73132;SDS011;61320;52.008;4.530;2023-03-16T07:12:38;5.51;;;5.51;;
73132;SDS011;61320;52.008;4.530;2023-03-16T07:15:03;5.58;;;5.58;;
73132;SDS011;61320;52.008;4.530;2023-03-16T07:17:29;5.29;;;5.29;;
73132;SDS011;61320;52.008;4.530;2023-03-16T07:19:56;5.69;;;5.69;;
73132;SDS011;61320;52.008;4.530;2023-03-16T07:22:21;5.19;;;5.19;;
73132;SDS011;61320;52.008;4.530;2023-03-16T07:24:47;5.51;;;5.51;;
73132;SDS011;61320;52.008;4.530;2023-03-16T07:27:20;5.09;;;5.09;;
73132;SDS011;61320;52.008;4.530;2023-03-16T07:29:47;5.11;;;5.11;;
73132;SDS011;61320;52.008;4.530;2023-03-16T07:32:13;5.28;;;5.28;;
73132;SDS011;61320;52.008;4.530;2023-03-16T07:34:39;5.17;;;5.17;;
73132;SDS011;61320;52.008;4.530;2023-03-16T07:37:06;5.20;;;5.20;;
73132;SDS011;61320;52.008;4.530;2023-03-16T07:39:33;4.94;;;4.94;;
73132;SDS011;61320;52.008;4.530;2023-03-16T07:41:59;5.19;;;5.19;;
73132;SDS011;61320;52.008;4.530;2023-03-16T07:44:25;5.03;;;5.03;;
73132;SDS011;61320;52.008;4.530;2023-03-16T07:46:52;4.83;;;4.83;;
73132;SDS011;61320;52.008;4.530;2023-03-16T07:49:17;4.72;;;4.72;;
73132;SDS011;61320;52.008;4.530;2023-03-16T07:51:43;4.95;;;4.95;;
73132;SDS011;61320;52.008;4.530;2023-03-16T07:54:08;4.70;;;4.70;;
73132;SDS011;61320;52.008;4.530;2023-03-16T07:56:34;4.51;;;4.51;;
73132;SDS011;61320;52.008;4.530;2023-03-16T07:59:00;4.40;;;4.40;;
73132;SDS011;61320;52.008;4.530;2023-03-16T08:01:26;4.71;;;4.71;;
73132;SDS011;61320;52.008;4.530;2023-03-16T08:03:52;4.52;;;4.52;;
73132;SDS011;61320;52.008;4.530;2023-03-16T08:06:18;4.44;;;4.43;;
73132;SDS011;61320;52.008;4.530;2023-03-16T08:08:43;4.45;;;4.44;;
73132;SDS011;61320;52.008;4.530;2023-03-16T08:11:09;4.75;;;4.75;;
73132;SDS011;61320;52.008;4.530;2023-03-16T08:13:35;4.50;;;4.50;;
73132;SDS011;61320;52.008;4.530;2023-03-16T08:16:00;4.33;;;4.33;;
73132;SDS011;61320;52.008;4.530;2023-03-16T08:18:27;4.59;;;4.59;;
73132;SDS011;61320;52.008;4.530;2023-03-16T08:20:54;4.19;;;4.19;;
73132;SDS011;61320;52.008;4.530;2023-03-16T08:23:20;4.37;;;4.37;;
73132;SDS011;61320;52.008;4.530;2023-03-16T08:25:55;4.16;;;4.16;;
73132;SDS011;61320;52.008;4.530;2023-03-16T08:28:21;4.39;;;4.39;;
73132;SDS011;61320;52.008;4.530;2023-03-16T08:30:50;4.20;;;4.20;;
73132;SDS011;61320;52.008;4.530;2023-03-16T08:33:17;3.94;;;3.94;;
73132;SDS011;61320;52.008;4.530;2023-03-16T08:35:44;3.98;;;3.98;;
73132;SDS011;61320;52.008;4.530;2023-03-16T08:38:11;4.36;;;4.36;;
73132;SDS011;61320;52.008;4.530;2023-03-16T08:40:41;4.18;;;4.18;;
73132;SDS011;61320;52.008;4.530;2023-03-16T08:43:11;4.24;;;4.24;;
73132;SDS011;61320;52.008;4.530;2023-03-16T08:45:37;4.25;;;4.25;;
73132;SDS011;61320;52.008;4.530;2023-03-16T08:48:03;4.53;;;4.53;;
73132;SDS011;61320;52.008;4.530;2023-03-16T08:50:29;4.48;;;4.48;;
73132;SDS011;61320;52.008;4.530;2023-03-16T08:52:54;4.60;;;4.60;;
73132;SDS011;61320;52.008;4.530;2023-03-16T08:55:20;4.24;;;4.24;;
73132;SDS011;61320;52.008;4.530;2023-03-16T08:57:45;4.17;;;4.17;;
73132;SDS011;61320;52.008;4.530;2023-03-16T09:00:12;4.23;;;4.23;;
73132;SDS011;61320;52.008;4.530;2023-03-16T09:02:40;4.03;;;4.03;;
73132;SDS011;61320;52.008;4.530;2023-03-16T09:05:10;3.99;;;3.99;;
73132;SDS011;61320;52.008;4.530;2023-03-16T09:07:39;4.08;;;4.08;;
73132;SDS011;61320;52.008;4.530;2023-03-16T09:10:05;3.87;;;3.87;;
73132;SDS011;61320;52.008;4.530;2023-03-16T09:12:34;4.16;;;4.16;;
73132;SDS011;61320;52.008;4.530;2023-03-16T09:15:01;4.46;;;4.46;;
73132;SDS011;61320;52.008;4.530;2023-03-16T09:17:26;4.02;;;4.02;;
73132;SDS011;61320;52.008;4.530;2023-03-16T09:19:52;3.86;;;3.86;;
73132;SDS011;61320;52.008;4.530;2023-03-16T09:22:19;3.81;;;3.81;;
73132;SDS011;61320;52.008;4.530;2023-03-16T09:24:46;3.94;;;3.94;;
73132;SDS011;61320;52.008;4.530;2023-03-16T09:27:13;3.89;;;3.89;;
73132;SDS011;61320;52.008;4.530;2023-03-16T09:29:39;3.74;;;3.74;;
73132;SDS011;61320;52.008;4.530;2023-03-16T09:32:07;3.68;;;3.68;;
73132;SDS011;61320;52.008;4.530;2023-03-16T09:34:32;3.83;;;3.83;;
73132;SDS011;61320;52.008;4.530;2023-03-16T09:36:58;3.86;;;3.86;;
73132;SDS011;61320;52.008;4.530;2023-03-16T09:39:24;3.80;;;3.80;;
73132;SDS011;61320;52.008;4.530;2023-03-16T09:44:25;3.56;;;3.56;;
73132;SDS011;61320;52.008;4.530;2023-03-16T09:47:02;3.39;;;3.39;;
73132;SDS011;61320;52.008;4.530;2023-03-16T09:49:34;3.44;;;3.44;;
73132;SDS011;61320;52.008;4.530;2023-03-16T09:52:07;3.63;;;3.63;;
73132;SDS011;61320;52.008;4.530;2023-03-16T09:54:56;3.51;;;3.51;;
73132;SDS011;61320;52.008;4.530;2023-03-16T09:57:32;3.48;;;3.48;;
73132;SDS011;61320;52.008;4.530;2023-03-16T10:00:13;3.62;;;3.62;;
73132;SDS011;61320;52.008;4.530;2023-03-16T10:03:03;3.38;;;3.38;;
73132;SDS011;61320;52.008;4.530;2023-03-16T10:05:34;3.34;;;3.33;;
73132;SDS011;61320;52.008;4.530;2023-03-16T10:13:53;3.43;;;3.40;;
73132;SDS011;61320;52.008;4.530;2023-03-16T10:16:33;2.99;;;2.99;;
73132;SDS011;61320;52.008;4.530;2023-03-16T10:19:19;2.79;;;2.79;;
73132;SDS011;61320;52.008;4.530;2023-03-16T10:21:49;3.02;;;3.02;;
73132;SDS011;61320;52.008;4.530;2023-03-16T10:24:23;2.99;;;2.99;;
73132;SDS011;61320;52.008;4.530;2023-03-16T10:26:59;2.69;;;2.69;;
73132;SDS011;61320;52.008;4.530;2023-03-16T10:29:29;4.16;;;4.10;;
73132;SDS011;61320;52.008;4.530;2023-03-16T10:32:00;5.16;;;5.11;;
73132;SDS011;61320;52.008;4.530;2023-03-16T10:34:55;2.87;;;2.86;;
73132;SDS011;61320;52.008;4.530;2023-03-16T10:37:29;2.93;;;2.91;;
73132;SDS011;61320;52.008;4.530;2023-03-16T10:39:56;3.00;;;2.96;;
73132;SDS011;61320;52.008;4.530;2023-03-16T10:42:25;2.95;;;2.92;;
73132;SDS011;61320;52.008;4.530;2023-03-16T10:44:57;3.02;;;3.01;;
73132;SDS011;61320;52.008;4.530;2023-03-16T10:47:27;2.80;;;2.79;;
73132;SDS011;61320;52.008;4.530;2023-03-16T10:49:56;2.92;;;2.90;;
73132;SDS011;61320;52.008;4.530;2023-03-16T10:54:58;2.96;;;2.96;;
73132;SDS011;61320;52.008;4.530;2023-03-16T10:57:29;2.94;;;2.93;;
73132;SDS011;61320;52.008;4.530;2023-03-16T11:02:37;2.56;;;2.56;;
73132;SDS011;61320;52.008;4.530;2023-03-16T11:05:10;2.67;;;2.67;;
73132;SDS011;61320;52.008;4.530;2023-03-16T11:07:49;2.93;;;2.93;;
73132;SDS011;61320;52.008;4.530;2023-03-16T11:10:35;3.04;;;3.04;;
73132;SDS011;61320;52.008;4.530;2023-03-16T11:15:50;2.99;;;2.99;;
73132;SDS011;61320;52.008;4.530;2023-03-16T11:21:32;2.86;;;2.84;;
73132;SDS011;61320;52.008;4.530;2023-03-16T11:26:52;2.90;;;2.85;;
73132;SDS011;61320;52.008;4.530;2023-03-16T11:32:04;2.87;;;2.83;;
73132;SDS011;61320;52.008;4.530;2023-03-16T11:34:37;2.72;;;2.70;;
73132;SDS011;61320;52.008;4.530;2023-03-16T11:39:41;2.54;;;2.50;;
73132;SDS011;61320;52.008;4.530;2023-03-16T11:50:09;3.38;;;3.32;;
73132;SDS011;61320;52.008;4.530;2023-03-16T12:14:31;2.54;;;2.46;;
73132;SDS011;61320;52.008;4.530;2023-03-16T12:17:13;2.21;;;2.14;;
73132;SDS011;61320;52.008;4.530;2023-03-16T12:22:42;2.30;;;2.19;;
73132;SDS011;61320;52.008;4.530;2023-03-16T12:25:25;2.33;;;2.21;;
73132;SDS011;61320;52.008;4.530;2023-03-16T12:27:56;2.28;;;2.13;;
73132;SDS011;61320;52.008;4.530;2023-03-16T12:30:31;2.92;;;2.67;;
73132;SDS011;61320;52.008;4.530;2023-03-16T12:41:33;23.09;;;15.21;;
73132;SDS011;61320;52.008;4.530;2023-03-16T12:49:52;4.24;;;3.09;;
73132;SDS011;61320;52.008;4.530;2023-03-16T12:52:18;3.35;;;2.61;;
73132;SDS011;61320;52.008;4.530;2023-03-16T12:54:48;13.65;;;9.73;;
73132;SDS011;61320;52.008;4.530;2023-03-16T12:57:16;6.30;;;4.22;;
73132;SDS011;61320;52.008;4.530;2023-03-16T12:59:43;3.76;;;2.74;;
73132;SDS011;61320;52.008;4.530;2023-03-16T13:02:18;3.51;;;2.74;;
73132;SDS011;61320;52.008;4.530;2023-03-16T13:04:53;3.07;;;2.51;;
73132;SDS011;61320;52.008;4.530;2023-03-16T13:07:23;3.92;;;3.47;;
73132;SDS011;61320;52.008;4.530;2023-03-16T13:10:08;2.57;;;2.29;;
73132;SDS011;61320;52.008;4.530;2023-03-16T13:12:38;2.48;;;2.19;;
73132;SDS011;61320;52.008;4.530;2023-03-16T13:20:32;10.73;;;7.10;;
73132;SDS011;61320;52.008;4.530;2023-03-16T13:23:07;4.77;;;3.41;;
73132;SDS011;61320;52.008;4.530;2023-03-16T13:25:43;3.08;;;2.42;;
73132;SDS011;61320;52.008;4.530;2023-03-16T13:28:24;2.95;;;2.48;;
73132;SDS011;61320;52.008;4.530;2023-03-16T13:30:55;2.47;;;2.09;;
73132;SDS011;61320;52.008;4.530;2023-03-16T13:33:25;2.27;;;1.97;;
73132;SDS011;61320;52.008;4.530;2023-03-16T13:35:53;2.41;;;2.10;;
73132;SDS011;61320;52.008;4.530;2023-03-16T13:38:22;2.48;;;2.15;;
73132;SDS011;61320;52.008;4.530;2023-03-16T13:40:56;2.30;;;2.04;;
73132;SDS011;61320;52.008;4.530;2023-03-16T13:43:28;2.16;;;1.92;;
73132;SDS011;61320;52.008;4.530;2023-03-16T13:46:11;2.25;;;2.00;;
73132;SDS011;61320;52.008;4.530;2023-03-16T13:48:38;2.47;;;2.22;;
73132;SDS011;61320;52.008;4.530;2023-03-16T13:51:09;2.39;;;2.17;;
73132;SDS011;61320;52.008;4.530;2023-03-16T13:53:40;1.89;;;1.73;;
73132;SDS011;61320;52.008;4.530;2023-03-16T13:56:11;2.00;;;1.80;;
73132;SDS011;61320;52.008;4.530;2023-03-16T13:58:42;1.86;;;1.66;;
73132;SDS011;61320;52.008;4.530;2023-03-16T14:01:23;2.04;;;1.82;;
73132;SDS011;61320;52.008;4.530;2023-03-16T14:03:51;2.02;;;1.81;;
73132;SDS011;61320;52.008;4.530;2023-03-16T14:06:21;2.15;;;1.94;;
73132;SDS011;61320;52.008;4.530;2023-03-16T14:08:51;2.12;;;1.93;;
73132;SDS011;61320;52.008;4.530;2023-03-16T14:11:22;2.11;;;1.94;;
73132;SDS011;61320;52.008;4.530;2023-03-16T14:13:51;2.26;;;2.06;;
73132;SDS011;61320;52.008;4.530;2023-03-16T14:16:20;2.05;;;1.86;;
73132;SDS011;61320;52.008;4.530;2023-03-16T14:19:00;1.88;;;1.72;;
73132;SDS011;61320;52.008;4.530;2023-03-16T14:21:28;1.97;;;1.82;;
73132;SDS011;61320;52.008;4.530;2023-03-16T14:26:26;1.81;;;1.71;;
73132;SDS011;61320;52.008;4.530;2023-03-16T14:28:56;1.93;;;1.82;;
73132;SDS011;61320;52.008;4.530;2023-03-16T14:31:34;2.04;;;1.92;;
73132;SDS011;61320;52.008;4.530;2023-03-16T14:34:03;2.08;;;1.96;;
73132;SDS011;61320;52.008;4.530;2023-03-16T14:36:36;1.94;;;1.85;;
73132;SDS011;61320;52.008;4.530;2023-03-16T14:39:10;1.76;;;1.68;;
73132;SDS011;61320;52.008;4.530;2023-03-16T14:41:37;1.84;;;1.73;;
73132;SDS011;61320;52.008;4.530;2023-03-16T14:44:04;1.72;;;1.64;;
73132;SDS011;61320;52.008;4.530;2023-03-16T14:46:30;2.01;;;1.90;;
73132;SDS011;61320;52.008;4.530;2023-03-16T14:48:59;2.13;;;1.98;;
73132;SDS011;61320;52.008;4.530;2023-03-16T14:51:25;1.80;;;1.69;;
73132;SDS011;61320;52.008;4.530;2023-03-16T14:53:53;2.03;;;1.92;;
73132;SDS011;61320;52.008;4.530;2023-03-16T14:56:19;2.10;;;2.00;;
73132;SDS011;61320;52.008;4.530;2023-03-16T14:58:45;2.00;;;1.89;;
73132;SDS011;61320;52.008;4.530;2023-03-16T15:01:15;2.01;;;1.91;;
73132;SDS011;61320;52.008;4.530;2023-03-16T15:03:42;1.78;;;1.70;;
73132;SDS011;61320;52.008;4.530;2023-03-16T15:06:09;1.81;;;1.71;;
73132;SDS011;61320;52.008;4.530;2023-03-16T15:08:35;1.83;;;1.73;;
73132;SDS011;61320;52.008;4.530;2023-03-16T15:11:09;1.92;;;1.82;;
73132;SDS011;61320;52.008;4.530;2023-03-16T15:13:34;1.76;;;1.70;;
73132;SDS011;61320;52.008;4.530;2023-03-16T15:16:20;1.82;;;1.77;;
73132;SDS011;61320;52.008;4.530;2023-03-16T15:18:47;1.63;;;1.57;;
73132;SDS011;61320;52.008;4.530;2023-03-16T15:21:13;1.77;;;1.72;;
73132;SDS011;61320;52.008;4.530;2023-03-16T15:23:45;1.61;;;1.56;;
73132;SDS011;61320;52.008;4.530;2023-03-16T15:26:15;1.92;;;1.85;;
73132;SDS011;61320;52.008;4.530;2023-03-16T15:28:46;1.88;;;1.82;;
73132;SDS011;61320;52.008;4.530;2023-03-16T15:31:12;1.83;;;1.78;;
73132;SDS011;61320;52.008;4.530;2023-03-16T15:33:38;1.83;;;1.77;;
73132;SDS011;61320;52.008;4.530;2023-03-16T15:36:14;1.74;;;1.66;;
73132;SDS011;61320;52.008;4.530;2023-03-16T15:38:46;1.84;;;1.76;;
73132;SDS011;61320;52.008;4.530;2023-03-16T15:41:15;2.02;;;1.93;;
73132;SDS011;61320;52.008;4.530;2023-03-16T15:43:41;1.77;;;1.68;;
73132;SDS011;61320;52.008;4.530;2023-03-16T15:46:09;1.83;;;1.73;;
73132;SDS011;61320;52.008;4.530;2023-03-16T15:48:35;1.84;;;1.76;;
73132;SDS011;61320;52.008;4.530;2023-03-16T15:56:03;1.79;;;1.71;;
73132;SDS011;61320;52.008;4.530;2023-03-16T15:58:33;1.71;;;1.63;;
73132;SDS011;61320;52.008;4.530;2023-03-16T16:01:01;1.65;;;1.59;;
73132;SDS011;61320;52.008;4.530;2023-03-16T16:03:28;1.66;;;1.62;;
73132;SDS011;61320;52.008;4.530;2023-03-16T16:05:53;1.65;;;1.61;;
73132;SDS011;61320;52.008;4.530;2023-03-16T16:08:19;1.70;;;1.65;;
73132;SDS011;61320;52.008;4.530;2023-03-16T16:10:46;1.75;;;1.69;;
73132;SDS011;61320;52.008;4.530;2023-03-16T16:13:18;1.59;;;1.52;;
73132;SDS011;61320;52.008;4.530;2023-03-16T16:15:48;1.73;;;1.65;;
73132;SDS011;61320;52.008;4.530;2023-03-16T16:18:22;1.71;;;1.61;;
73132;SDS011;61320;52.008;4.530;2023-03-16T16:20:50;1.63;;;1.55;;
73132;SDS011;61320;52.008;4.530;2023-03-16T16:23:18;1.50;;;1.43;;
73132;SDS011;61320;52.008;4.530;2023-03-16T16:25:44;1.44;;;1.38;;
73132;SDS011;61320;52.008;4.530;2023-03-16T16:28:21;1.48;;;1.43;;